createdAt,value
2023-02-28T00:00:34.678Z,71.94
2023-02-28T00:03:05.256Z,71.96
2023-02-28T00:05:38.140Z,72.10
2023-02-28T00:08:08.656Z,71.90
2023-02-28T00:10:38.908Z,71.70
2023-02-28T00:13:10.473Z,71.71
2023-02-28T00:15:40.621Z,72.04
2023-02-28T00:18:10.717Z,71.85
2023-02-28T00:20:43.421Z,71.83
2023-02-28T00:23:15.476Z,71.84
2023-02-28T00:25:45.596Z,72.04
2023-02-28T00:28:16.286Z,71.92
2023-02-28T00:30:46.684Z,72.11
2023-02-28T00:33:17.287Z,72.09
2023-02-28T00:35:50.202Z,72.12
2023-02-28T00:38:21.117Z,72.24
2023-02-28T00:40:51.297Z,72.02
2023-02-28T00:43:21.392Z,72.38
2023-02-28T00:45:51.576Z,72.45
2023-02-28T00:48:22.017Z,72.06
2023-02-28T00:50:55.798Z,71.91
2023-02-28T00:53:25.910Z,71.81
2023-02-28T00:55:56.665Z,71.94
2023-02-28T00:58:26.656Z,72.13
2023-02-28T01:00:57.402Z,72.17
2023-02-28T01:03:27.618Z,72.39
2023-02-28T01:06:00.758Z,72.55
2023-02-28T01:08:31.364Z,72.79
2023-02-28T01:11:01.564Z,72.71
2023-02-28T01:13:31.595Z,72.81
2023-02-28T01:16:01.882Z,73.42
2023-02-28T01:18:32.544Z,73.32
2023-02-28T01:21:08.039Z,73.62
2023-02-28T01:23:38.202Z,74.02
2023-02-28T01:26:09.754Z,74.12
2023-02-28T01:28:43.563Z,74.41
2023-02-28T01:31:14.427Z,74.41
2023-02-28T01:33:45.304Z,74.19
2023-02-28T01:36:20.092Z,74.58
2023-02-28T01:38:50.767Z,74.66
2023-02-28T01:41:27.747Z,74.57
2023-02-28T01:44:06.498Z,74.47
2023-02-28T01:46:38.671Z,74.24
2023-02-28T01:49:13.507Z,74.73
2023-02-28T01:51:51.944Z,74.40
2023-02-28T01:54:26.453Z,74.56
2023-02-28T01:57:00.969Z,74.60
2023-02-28T01:59:37.139Z,74.70
2023-02-28T02:02:07.617Z,74.72
2023-02-28T02:04:44.223Z,74.73
2023-02-28T02:07:18.232Z,74.68
2023-02-28T02:09:48.862Z,74.71
2023-02-28T02:12:35.196Z,74.94
2023-02-28T02:15:12.344Z,75.04
2023-02-28T02:17:46.936Z,74.97
2023-02-28T02:20:45.329Z,75.32
2023-02-28T02:23:34.300Z,75.56
2023-02-28T02:26:22.603Z,75.68
2023-02-28T02:29:32.173Z,75.88
2023-02-28T02:32:33.942Z,76.09
2023-02-28T02:35:16.131Z,76.03
2023-02-28T02:37:54.571Z,76.32
2023-02-28T02:40:28.210Z,76.19
2023-02-28T02:43:04.155Z,76.37
2023-02-28T02:45:39.730Z,76.15
2023-02-28T02:48:14.333Z,75.97
2023-02-28T02:50:49.267Z,76.16
2023-02-28T02:53:25.228Z,76.08
2023-02-28T02:55:57.497Z,76.23
2023-02-28T02:58:32.825Z,76.52
2023-02-28T03:01:05.989Z,76.22
2023-02-28T03:03:37.220Z,76.14
2023-02-28T03:06:11.234Z,76.37
2023-02-28T03:08:42.151Z,76.50
2023-02-28T03:11:19.304Z,76.45
2023-02-28T03:13:58.509Z,76.48
2023-02-28T03:16:54.156Z,76.24
2023-02-28T03:19:31.012Z,76.80
2023-02-28T03:22:16.665Z,76.63
2023-02-28T03:24:53.597Z,76.19
2023-02-28T03:27:30.204Z,75.95
2023-02-28T03:30:05.240Z,75.91
2023-02-28T03:32:40.502Z,75.60
2023-02-28T03:35:15.305Z,75.69
2023-02-28T03:37:50.364Z,75.38
2023-02-28T03:40:24.093Z,75.51
2023-02-28T03:42:58.111Z,75.51
2023-02-28T03:45:31.590Z,75.32
2023-02-28T03:48:06.694Z,75.58
2023-02-28T03:50:42.096Z,75.44
2023-02-28T03:53:20.690Z,75.24
2023-02-28T03:55:54.362Z,75.48
2023-02-28T03:58:31.103Z,75.54
2023-02-28T04:01:09.691Z,75.51
2023-02-28T04:03:40.829Z,75.66
2023-02-28T04:06:17.019Z,75.54
2023-02-28T04:08:49.955Z,75.48
2023-02-28T04:11:26.258Z,75.44
2023-02-28T04:13:56.628Z,75.37
2023-02-28T04:16:35.101Z,75.59
2023-02-28T04:19:06.948Z,75.27
2023-02-28T04:21:38.595Z,75.28
2023-02-28T04:24:15.444Z,75.31
2023-02-28T04:26:47.451Z,75.54
2023-02-28T04:29:22.188Z,76.10
2023-02-28T04:31:52.449Z,75.99
2023-02-28T04:34:22.496Z,76.11
2023-02-28T04:37:10.355Z,76.07
2023-02-28T04:39:45.971Z,76.34
2023-02-28T04:42:18.692Z,76.39
2023-02-28T04:44:48.857Z,76.19
2023-02-28T04:47:19.179Z,76.14
2023-02-28T04:49:49.654Z,76.22
2023-02-28T04:52:19.653Z,76.29
2023-02-28T04:54:52.663Z,76.15
2023-02-28T04:57:22.599Z,76.00
2023-02-28T04:59:52.576Z,75.95
2023-02-28T05:02:22.760Z,76.01
2023-02-28T05:04:52.987Z,75.84
2023-02-28T05:07:23.233Z,75.85
2023-02-28T05:09:56.110Z,75.89
2023-02-28T05:12:26.114Z,76.01
2023-02-28T05:14:56.215Z,76.09
2023-02-28T05:17:26.305Z,76.15
2023-02-28T05:20:06.507Z,76.08
2023-02-28T05:22:44.076Z,76.04
2023-02-28T05:25:24.989Z,75.85
2023-02-28T05:27:55.016Z,75.83
2023-02-28T05:30:25.212Z,75.80
2023-02-28T05:32:55.930Z,75.80
2023-02-28T05:35:26.121Z,75.56
2023-02-28T05:37:56.379Z,75.75
2023-02-28T05:40:29.100Z,75.76
2023-02-28T05:42:59.110Z,75.49
2023-02-28T05:45:29.586Z,75.48
2023-02-28T05:48:00.189Z,75.55
2023-02-28T05:50:30.405Z,75.15
2023-02-28T05:53:00.351Z,74.93
2023-02-28T05:55:33.238Z,74.72
2023-02-28T05:58:03.694Z,74.59
2023-02-28T06:00:34.017Z,74.50
2023-02-28T06:03:04.210Z,74.44
2023-02-28T06:05:34.873Z,74.26
2023-02-28T06:08:04.834Z,74.25
2023-02-28T06:10:37.716Z,73.91
2023-02-28T06:13:08.719Z,74.23
2023-02-28T06:15:38.850Z,74.01
2023-02-28T06:18:09.331Z,73.91
2023-02-28T06:20:39.292Z,73.74
2023-02-28T06:23:09.635Z,73.84
2023-02-28T06:25:42.297Z,73.74
2023-02-28T06:28:12.301Z,73.83
2023-02-28T06:30:44.468Z,73.62
2023-02-28T06:33:15.530Z,73.31
2023-02-28T06:35:47.898Z,73.47
2023-02-28T06:38:19.200Z,73.29
2023-02-28T06:40:57.731Z,73.28
2023-02-28T06:43:29.731Z,73.25
2023-02-28T06:46:01.004Z,73.24
2023-02-28T06:48:31.539Z,73.31
2023-02-28T06:51:09.572Z,73.28
2023-02-28T06:53:39.935Z,73.34
2023-02-28T06:56:14.796Z,73.16
2023-02-28T06:58:45.512Z,73.40
2023-02-28T07:01:17.449Z,73.37
2023-02-28T07:03:47.693Z,73.50
2023-02-28T07:06:19.043Z,73.52
2023-02-28T07:08:49.263Z,73.51
2023-02-28T07:11:23.562Z,73.28
2023-02-28T07:13:53.496Z,73.46
2023-02-28T07:16:24.545Z,73.42
2023-02-28T07:18:57.008Z,73.39
2023-02-28T07:21:27.323Z,73.46
2023-02-28T07:23:57.720Z,73.19
2023-02-28T07:26:30.792Z,73.15
2023-02-28T07:29:00.896Z,73.01
2023-02-28T07:31:31.552Z,72.92
2023-02-28T07:34:01.707Z,72.84
2023-02-28T07:36:31.707Z,73.15
2023-02-28T07:39:02.677Z,73.03
2023-02-28T07:41:38.729Z,72.89
2023-02-28T07:44:09.058Z,72.52
2023-02-28T07:46:39.145Z,72.72
2023-02-28T07:49:10.535Z,72.13
2023-02-28T07:51:40.641Z,72.15
2023-02-28T07:54:14.823Z,72.15
2023-02-28T07:56:47.528Z,72.26
2023-02-28T07:59:17.564Z,72.10
2023-02-28T08:01:47.879Z,71.77
2023-02-28T08:04:18.146Z,71.93
2023-02-28T08:06:49.776Z,71.78
2023-02-28T08:09:22.409Z,71.63
2023-02-28T08:11:55.298Z,71.31
2023-02-28T08:14:25.635Z,71.19
2023-02-28T08:16:55.872Z,71.13
2023-02-28T08:19:26.263Z,70.94
2023-02-28T08:21:56.308Z,70.95
2023-02-28T08:24:27.086Z,70.65
2023-02-28T08:26:59.795Z,70.76
2023-02-28T08:29:31.284Z,70.21
2023-02-28T08:32:01.521Z,70.08
2023-02-28T08:34:31.710Z,70.25
2023-02-28T08:37:01.644Z,70.05
2023-02-28T08:39:31.732Z,69.93
2023-02-28T08:42:08.224Z,69.85
2023-02-28T08:44:38.560Z,69.95
2023-02-28T08:47:08.786Z,69.30
2023-02-28T08:49:38.963Z,69.16
2023-02-28T08:52:12.004Z,68.99
2023-02-28T08:54:42.054Z,69.01
2023-02-28T08:57:14.669Z,68.95
2023-02-28T08:59:44.767Z,68.49
2023-02-28T09:02:17.191Z,68.42
2023-02-28T09:04:48.272Z,68.18
2023-02-28T09:07:18.309Z,67.94
2023-02-28T09:09:58.752Z,67.45
2023-02-28T09:12:36.398Z,67.22
2023-02-28T09:15:07.526Z,67.17
2023-02-28T09:17:37.903Z,67.31
2023-02-28T09:20:09.545Z,67.23
2023-02-28T09:22:39.809Z,66.72
2023-02-28T09:25:10.749Z,66.16
2023-02-28T09:27:43.460Z,66.76
2023-02-28T09:30:15.262Z,66.32
2023-02-28T09:32:53.180Z,66.13
2023-02-28T09:35:23.551Z,66.12
2023-02-28T09:37:55.384Z,65.35
2023-02-28T09:40:27.541Z,65.79
2023-02-28T09:43:03.629Z,65.65
2023-02-28T09:45:37.702Z,66.29
2023-02-28T09:48:13.705Z,66.24
2023-02-28T09:50:46.394Z,66.05
2023-02-28T09:53:24.173Z,65.81
2023-02-28T09:55:58.620Z,66.13
2023-02-28T09:58:41.109Z,65.63
2023-02-28T10:01:16.855Z,65.84
2023-02-28T10:03:53.227Z,65.51
2023-02-28T10:06:26.652Z,65.86
2023-02-28T10:09:04.775Z,65.48
2023-02-28T10:11:38.087Z,64.94
2023-02-28T10:14:17.023Z,65.40
2023-02-28T10:16:53.124Z,65.11
2023-02-28T10:19:27.848Z,64.50
2023-02-28T10:22:01.724Z,64.01
2023-02-28T10:24:36.356Z,63.06
2023-02-28T10:27:18.321Z,61.12
2023-02-28T10:29:56.093Z,63.58
2023-02-28T10:32:29.408Z,63.45
2023-02-28T10:35:03.405Z,63.87
2023-02-28T10:37:39.114Z,63.69
2023-02-28T10:40:11.128Z,62.40
2023-02-28T10:42:42.138Z,63.41
2023-02-28T10:45:19.908Z,63.76
2023-02-28T10:47:57.150Z,63.14
2023-02-28T10:50:39.152Z,61.82
2023-02-28T10:53:20.391Z,61.68
2023-02-28T10:56:01.943Z,62.53
2023-02-28T10:58:34.000Z,62.15
2023-02-28T11:01:07.067Z,62.50
2023-02-28T11:03:39.190Z,62.59
2023-02-28T11:06:12.090Z,62.96
2023-02-28T11:08:49.659Z,61.46
2023-02-28T11:11:21.008Z,61.39
2023-02-28T11:13:54.577Z,61.89
2023-02-28T11:16:37.066Z,62.02
2023-02-28T11:19:08.360Z,62.32
2023-02-28T11:21:41.833Z,62.17
2023-02-28T11:24:26.289Z,61.89
2023-02-28T11:26:56.756Z,61.27
2023-02-28T11:29:29.582Z,61.29
2023-02-28T11:32:17.302Z,61.49
2023-02-28T11:34:48.377Z,61.51
2023-02-28T11:37:25.798Z,61.94
2023-02-28T11:39:55.892Z,61.23
2023-02-28T11:42:48.123Z,62.33
2023-02-28T11:45:48.937Z,59.58
2023-02-28T11:48:26.973Z,59.56
2023-02-28T11:51:09.308Z,60.84
2023-02-28T11:53:59.279Z,60.46
2023-02-28T11:56:35.415Z,61.70
2023-02-28T11:59:30.854Z,61.77
2023-02-28T12:02:27.626Z,61.32
2023-02-28T12:05:15.300Z,61.55
2023-02-28T12:07:54.878Z,61.81
2023-02-28T12:10:29.063Z,61.45
2023-02-28T12:13:22.699Z,61.66
2023-02-28T12:16:04.302Z,61.29
2023-02-28T12:18:57.352Z,55.94
2023-02-28T12:21:40.773Z,58.76
2023-02-28T12:24:35.124Z,58.24
2023-02-28T12:27:09.543Z,61.48
2023-02-28T12:29:47.026Z,61.15
2023-02-28T12:32:21.547Z,61.25
2023-02-28T12:34:55.874Z,61.79
2023-02-28T12:37:32.534Z,55.29
2023-02-28T12:40:07.699Z,61.46
2023-02-28T12:42:43.305Z,61.34
2023-02-28T12:45:21.863Z,61.57
2023-02-28T12:48:01.977Z,61.50
2023-02-28T12:50:34.536Z,61.21
2023-02-28T12:53:15.437Z,62.00
2023-02-28T12:55:55.095Z,62.14
2023-02-28T12:58:37.049Z,62.89
2023-02-28T13:01:38.644Z,62.46
2023-02-28T13:04:47.499Z,55.21
2023-02-28T13:07:45.925Z,60.15
2023-02-28T13:10:21.520Z,60.37
2023-02-28T13:12:54.701Z,59.98
2023-02-28T13:15:30.778Z,59.22
2023-02-28T13:18:04.484Z,60.51
2023-02-28T13:20:39.377Z,60.35
2023-02-28T13:23:45.723Z,55.34
2023-02-28T13:26:20.067Z,60.00
2023-02-28T13:29:35.198Z,57.97
2023-02-28T13:32:39.254Z,60.78
2023-02-28T13:35:43.756Z,57.02
2023-02-28T13:38:38.743Z,59.98
2023-02-28T13:41:42.834Z,57.27
2023-02-28T13:44:19.232Z,59.96
2023-02-28T13:47:20.036Z,58.80
2023-02-28T13:49:51.901Z,60.41
2023-02-28T13:52:27.301Z,61.29
2023-02-28T13:55:31.826Z,60.65
2023-02-28T13:58:27.708Z,61.10
2023-02-28T14:01:25.183Z,61.44
2023-02-28T14:04:15.045Z,61.14
2023-02-28T14:06:53.684Z,60.43
2023-02-28T14:09:30.854Z,60.54
2023-02-28T14:12:22.846Z,60.46
2023-02-28T14:15:01.419Z,60.90
2023-02-28T14:17:36.447Z,61.03
2023-02-28T14:20:09.034Z,61.08
2023-02-28T14:22:59.874Z,60.20
2023-02-28T14:25:41.557Z,61.01
2023-02-28T14:28:21.913Z,60.36
2023-02-28T14:31:11.087Z,59.98
2023-02-28T14:34:07.358Z,59.65
2023-02-28T14:36:41.637Z,60.62
2023-02-28T14:39:17.342Z,60.89
2023-02-28T14:41:48.920Z,60.98
2023-02-28T14:44:22.611Z,60.51
2023-02-28T14:46:56.628Z,61.13
2023-02-28T14:49:31.307Z,57.03
2023-02-28T14:52:13.002Z,60.29
2023-02-28T14:54:44.552Z,60.43
2023-02-28T14:57:26.759Z,60.55
2023-02-28T15:00:12.708Z,61.15
2023-02-28T15:02:43.567Z,59.84
2023-02-28T15:05:34.350Z,59.80
2023-02-28T15:08:10.489Z,58.74
2023-02-28T15:10:41.324Z,57.40
2023-02-28T15:13:17.051Z,58.35
2023-02-28T15:16:01.944Z,59.21
2023-02-28T15:18:42.441Z,60.27
2023-02-28T15:21:18.803Z,60.40
2023-02-28T15:23:54.801Z,61.20
2023-02-28T15:26:30.198Z,61.72
2023-02-28T15:29:04.701Z,61.70
2023-02-28T15:31:55.337Z,55.29
2023-02-28T15:34:42.228Z,60.94
2023-02-28T15:37:34.962Z,57.81
2023-02-28T15:40:17.703Z,61.04
2023-02-28T15:43:03.822Z,61.62
2023-02-28T15:45:42.560Z,61.59
2023-02-28T15:48:23.993Z,61.15
2023-02-28T15:51:00.227Z,61.57
2023-02-28T15:53:38.122Z,62.14
2023-02-28T15:56:19.634Z,62.49
2023-02-28T15:58:54.815Z,62.53
2023-02-28T16:01:31.556Z,62.71
2023-02-28T16:04:06.300Z,62.45
2023-02-28T16:06:44.452Z,62.12
2023-02-28T16:09:21.711Z,62.13
2023-02-28T16:11:55.435Z,62.39
2023-02-28T16:14:28.909Z,61.76
2023-02-28T16:17:06.884Z,61.81
2023-02-28T16:19:38.774Z,61.98
2023-02-28T16:22:10.246Z,62.01
2023-02-28T16:24:44.713Z,62.56
2023-02-28T16:27:23.248Z,62.53
2023-02-28T16:29:55.864Z,61.97
2023-02-28T16:32:28.101Z,62.43
2023-02-28T16:34:59.681Z,63.01
2023-02-28T16:37:32.874Z,62.92
2023-02-28T16:40:07.760Z,63.05
2023-02-28T16:42:42.190Z,63.58
2023-02-28T16:45:22.027Z,63.90
2023-02-28T16:47:53.570Z,63.73
2023-02-28T16:50:27.260Z,64.11
2023-02-28T16:52:59.613Z,63.99
2023-02-28T16:55:34.185Z,63.79
2023-02-28T16:58:07.461Z,63.96
2023-02-28T17:00:40.315Z,63.83
2023-02-28T17:03:30.780Z,64.37
2023-02-28T17:06:04.676Z,64.33
2023-02-28T17:08:40.071Z,64.56
2023-02-28T17:11:14.661Z,64.98
2023-02-28T17:13:46.606Z,64.83
2023-02-28T17:16:25.117Z,65.13
2023-02-28T17:18:58.252Z,64.87
2023-02-28T17:21:29.932Z,64.86
2023-02-28T17:24:01.706Z,65.25
2023-02-28T17:26:36.167Z,65.45
2023-02-28T17:29:11.221Z,65.42
2023-02-28T17:31:43.049Z,65.51
2023-02-28T17:34:19.585Z,65.28
2023-02-28T17:36:53.466Z,65.64
2023-02-28T17:39:25.675Z,65.65
2023-02-28T17:42:00.621Z,65.73
2023-02-28T17:44:32.137Z,65.51
2023-02-28T17:47:04.477Z,65.51
2023-02-28T17:49:35.972Z,65.54
2023-02-28T17:52:07.941Z,65.79
2023-02-28T17:54:39.855Z,65.81
2023-02-28T17:57:23.131Z,65.58
2023-02-28T17:59:58.158Z,65.55
2023-02-28T18:02:30.485Z,65.46
2023-02-28T18:05:01.971Z,65.85
2023-02-28T18:07:34.964Z,65.87
2023-02-28T18:10:06.397Z,65.88
2023-02-28T18:12:39.469Z,66.21
2023-02-28T18:15:11.869Z,66.27
2023-02-28T18:17:43.185Z,66.37
2023-02-28T18:20:15.929Z,66.11
2023-02-28T18:22:49.211Z,65.88
2023-02-28T18:25:23.631Z,65.79
2023-02-28T18:27:58.917Z,66.14
2023-02-28T18:30:35.344Z,66.04
2023-02-28T18:33:07.690Z,66.35
2023-02-28T18:35:39.966Z,66.45
2023-02-28T18:38:15.296Z,66.61
2023-02-28T18:40:55.030Z,66.15
2023-02-28T18:43:29.481Z,66.38
2023-02-28T18:46:01.327Z,66.37
2023-02-28T18:48:35.686Z,66.38
2023-02-28T18:51:11.831Z,66.46
2023-02-28T18:53:46.297Z,66.72
2023-02-28T18:56:18.713Z,64.70
2023-02-28T18:58:53.670Z,66.51
2023-02-28T19:01:31.368Z,66.68
2023-02-28T19:04:04.526Z,66.94
2023-02-28T19:06:38.665Z,67.02
2023-02-28T19:09:10.909Z,66.92
2023-02-28T19:11:43.515Z,67.02
2023-02-28T19:14:16.756Z,67.17
2023-02-28T19:16:48.944Z,66.95
2023-02-28T19:19:21.546Z,67.03
2023-02-28T19:21:55.402Z,67.12
2023-02-28T19:24:27.532Z,67.26
2023-02-28T19:26:58.769Z,67.46
2023-02-28T19:29:31.617Z,67.51
2023-02-28T19:32:01.868Z,67.41
2023-02-28T19:34:32.091Z,67.57
2023-02-28T19:37:02.103Z,67.41
2023-02-28T19:39:41.150Z,67.60
2023-02-28T19:42:13.636Z,67.48
2023-02-28T19:44:48.488Z,67.34
2023-02-28T19:47:25.653Z,67.46
2023-02-28T19:49:57.136Z,67.58
2023-02-28T19:52:28.859Z,67.40
2023-02-28T19:55:00.770Z,67.41
2023-02-28T19:57:32.375Z,67.61
2023-02-28T20:00:07.208Z,67.34
2023-02-28T20:02:44.154Z,66.95
2023-02-28T20:05:14.878Z,67.42
2023-02-28T20:07:46.359Z,67.45
2023-02-28T20:10:18.031Z,67.37
2023-02-28T20:12:49.437Z,67.35
2023-02-28T20:15:23.668Z,67.55
2023-02-28T20:17:57.841Z,67.39
2023-02-28T20:20:30.080Z,67.48
2023-02-28T20:23:02.024Z,67.63
2023-02-28T20:25:32.979Z,67.19
2023-02-28T20:28:03.277Z,67.23
2023-02-28T20:30:38.161Z,67.25
2023-02-28T20:33:10.473Z,67.33
2023-02-28T20:35:41.856Z,67.26
2023-02-28T20:38:13.665Z,67.51
2023-02-28T20:40:44.089Z,67.43
2023-02-28T20:43:14.270Z,67.22
2023-02-28T20:45:54.975Z,67.24
2023-02-28T20:48:25.671Z,67.21
2023-02-28T20:50:59.090Z,67.43
2023-02-28T20:53:32.048Z,67.44
2023-02-28T20:56:04.216Z,67.54
2023-02-28T20:58:37.302Z,67.48
2023-02-28T21:01:16.172Z,67.40
2023-02-28T21:03:46.645Z,67.20
2023-02-28T21:06:17.569Z,67.37
2023-02-28T21:08:48.207Z,67.30
2023-02-28T21:11:20.428Z,67.32
2023-02-28T21:13:51.507Z,67.50
2023-02-28T21:16:26.202Z,67.72
2023-02-28T21:18:56.191Z,67.85
2023-02-28T21:21:27.722Z,67.99
2023-02-28T21:23:57.674Z,67.59
2023-02-28T21:26:28.633Z,67.26
2023-02-28T21:29:00.712Z,67.46
2023-02-28T21:31:35.891Z,67.75
2023-02-28T21:34:08.426Z,67.82
2023-02-28T21:36:41.061Z,68.38
2023-02-28T21:39:13.291Z,68.42
2023-02-28T21:41:43.621Z,68.32
2023-02-28T21:44:18.952Z,68.49
2023-02-28T21:46:57.086Z,68.88
2023-02-28T21:49:27.308Z,68.83
2023-02-28T21:51:57.294Z,68.63
2023-02-28T21:54:27.666Z,68.70
2023-02-28T21:56:59.814Z,69.01
2023-02-28T21:59:30.458Z,69.03
2023-02-28T22:02:05.570Z,69.24
2023-02-28T22:04:36.278Z,69.49
2023-02-28T22:07:07.620Z,69.37
2023-02-28T22:09:37.571Z,69.63
2023-02-28T22:12:08.628Z,69.75
2023-02-28T22:14:39.834Z,69.88
2023-02-28T22:17:12.519Z,69.96
2023-02-28T22:19:43.153Z,69.71
2023-02-28T22:22:13.444Z,69.79
2023-02-28T22:24:43.695Z,70.02
2023-02-28T22:27:13.816Z,69.94
2023-02-28T22:29:44.098Z,70.10
2023-02-28T22:32:16.920Z,69.91
2023-02-28T22:34:47.508Z,69.92
2023-02-28T22:37:17.790Z,70.15
2023-02-28T22:39:47.884Z,70.12
2023-02-28T22:42:17.968Z,69.92
2023-02-28T22:44:48.984Z,70.22
2023-02-28T22:47:22.594Z,70.24
2023-02-28T22:49:52.762Z,70.14
2023-02-28T22:52:22.785Z,70.18
2023-02-28T22:54:53.960Z,70.47
2023-02-28T22:57:24.311Z,70.24
2023-02-28T22:59:54.250Z,70.71
2023-02-28T23:02:27.120Z,70.53
2023-02-28T23:04:57.975Z,70.66
2023-02-28T23:07:28.162Z,70.63
2023-02-28T23:09:58.272Z,70.74
2023-02-28T23:12:28.336Z,70.58
2023-02-28T23:14:58.258Z,70.78
2023-02-28T23:17:31.030Z,70.76
2023-02-28T23:20:01.591Z,70.64
2023-02-28T23:22:31.709Z,70.57
2023-02-28T23:25:01.929Z,70.69
2023-02-28T23:27:32.290Z,71.01
2023-02-28T23:30:03.062Z,71.33
2023-02-28T23:32:35.951Z,71.25
2023-02-28T23:35:07.152Z,71.20
2023-02-28T23:37:37.660Z,71.38
2023-02-28T23:40:10.930Z,71.20
2023-02-28T23:42:40.948Z,71.15
2023-02-28T23:45:12.545Z,71.21
2023-02-28T23:47:45.337Z,71.29
2023-02-28T23:50:15.639Z,71.55
2023-02-28T23:52:45.638Z,71.38
2023-02-28T23:55:15.664Z,71.36
2023-02-28T23:57:45.894Z,71.53
